createdAt,value
2023-05-03T00:01:32.811Z,17.18
2023-05-03T00:03:59.499Z,17.08
2023-05-03T00:06:26.116Z,17.04
2023-05-03T00:08:52.758Z,17.03
2023-05-03T00:11:19.380Z,17.15
2023-05-03T00:13:45.970Z,17.29
2023-05-03T00:16:12.610Z,17.29
2023-05-03T00:18:39.216Z,17.31
2023-05-03T00:21:05.829Z,17.17
2023-05-03T00:23:32.403Z,17.30
2023-05-03T00:25:59.039Z,17.29
2023-05-03T00:28:25.724Z,17.33
2023-05-03T00:30:52.480Z,17.23
2023-05-03T00:33:19.085Z,16.89
2023-05-03T00:35:45.978Z,16.98
2023-05-03T00:38:12.695Z,16.75
2023-05-03T00:40:39.297Z,16.84
2023-05-03T00:43:05.881Z,16.94
2023-05-03T00:45:32.459Z,17.12
2023-05-03T00:47:59.078Z,16.96
2023-05-03T00:50:25.697Z,17.08
2023-05-03T00:52:52.341Z,16.83
2023-05-03T00:55:18.926Z,16.90
2023-05-03T00:57:45.593Z,17.03
2023-05-03T01:00:12.221Z,17.18
2023-05-03T01:02:38.878Z,17.19
2023-05-03T01:05:05.496Z,16.89
2023-05-03T01:07:32.062Z,16.68
2023-05-03T01:09:58.700Z,16.93
2023-05-03T01:12:25.266Z,17.05
2023-05-03T01:14:51.948Z,16.78
2023-05-03T01:17:18.702Z,16.57
2023-05-03T01:19:45.305Z,16.68
2023-05-03T01:22:11.886Z,16.97
2023-05-03T01:24:38.458Z,16.85
2023-05-03T01:27:05.053Z,16.77
2023-05-03T01:29:31.646Z,16.78
2023-05-03T01:31:58.449Z,16.95
2023-05-03T01:34:25.100Z,17.11
2023-05-03T01:36:51.709Z,17.05
2023-05-03T01:39:18.315Z,17.08
2023-05-03T01:41:44.881Z,16.68
2023-05-03T01:44:11.470Z,17.00
2023-05-03T01:46:38.085Z,17.14
2023-05-03T01:49:04.657Z,17.01
2023-05-03T01:51:31.242Z,16.98
2023-05-03T01:53:57.851Z,16.82
2023-05-03T01:56:24.451Z,16.89
2023-05-03T01:58:51.017Z,16.97
2023-05-03T02:01:17.629Z,17.03
2023-05-03T02:03:44.257Z,17.02
2023-05-03T02:06:10.916Z,16.64
2023-05-03T02:08:37.498Z,16.79
2023-05-03T02:11:04.081Z,16.86
2023-05-03T02:13:30.733Z,16.67
2023-05-03T02:15:57.321Z,16.82
2023-05-03T02:18:23.918Z,16.85
2023-05-03T02:20:50.530Z,16.95
2023-05-03T02:23:17.116Z,16.71
2023-05-03T02:25:43.691Z,16.65
2023-05-03T02:28:10.250Z,16.70
2023-05-03T02:30:36.877Z,16.78
2023-05-03T02:33:03.585Z,16.74
2023-05-03T02:35:30.216Z,16.70
2023-05-03T02:37:56.775Z,16.41
2023-05-03T02:40:23.365Z,16.51
2023-05-03T02:42:49.944Z,16.63
2023-05-03T02:45:16.544Z,16.59
2023-05-03T02:47:43.185Z,16.47
2023-05-03T02:50:09.769Z,16.58
2023-05-03T02:52:36.368Z,16.36
2023-05-03T02:55:04.706Z,16.39
2023-05-03T02:57:31.294Z,16.38
2023-05-03T02:59:57.886Z,16.46
2023-05-03T03:02:24.529Z,16.42
2023-05-03T03:04:51.226Z,16.28
2023-05-03T03:07:17.837Z,16.48
2023-05-03T03:09:44.472Z,16.35
2023-05-03T03:12:11.140Z,16.73
2023-05-03T03:14:37.715Z,16.70
2023-05-03T03:17:04.325Z,16.66
2023-05-03T03:19:30.909Z,16.60
2023-05-03T03:21:57.647Z,16.73
2023-05-03T03:24:24.226Z,16.67
2023-05-03T03:26:50.818Z,16.62
2023-05-03T03:29:17.408Z,16.49
2023-05-03T03:31:44.135Z,16.33
2023-05-03T03:34:10.747Z,16.55
2023-05-03T03:36:37.355Z,16.44
2023-05-03T03:39:03.937Z,16.48
2023-05-03T03:41:30.494Z,16.73
2023-05-03T03:43:57.084Z,16.67
2023-05-03T03:46:23.730Z,16.19
2023-05-03T03:48:50.341Z,16.39
2023-05-03T03:51:16.900Z,16.37
2023-05-03T03:53:43.526Z,16.41
2023-05-03T03:56:10.104Z,16.21
2023-05-03T03:58:36.709Z,16.31
2023-05-03T04:01:03.290Z,16.12
2023-05-03T04:03:30.050Z,16.18
2023-05-03T04:05:56.694Z,16.27
2023-05-03T04:08:23.262Z,16.26
2023-05-03T04:10:49.861Z,16.35
2023-05-03T04:13:16.600Z,16.43
2023-05-03T04:15:43.167Z,16.58
2023-05-03T04:18:09.844Z,16.50
2023-05-03T04:20:36.493Z,16.47
2023-05-03T04:23:03.101Z,16.53
2023-05-03T04:25:29.674Z,16.73
2023-05-03T04:27:56.267Z,16.65
2023-05-03T04:30:22.840Z,16.67
2023-05-03T04:32:49.534Z,16.52
2023-05-03T04:35:16.136Z,16.58
2023-05-03T04:37:42.775Z,16.58
2023-05-03T04:40:09.404Z,16.71
2023-05-03T04:42:36.046Z,16.50
2023-05-03T04:45:02.733Z,16.65
2023-05-03T04:47:29.334Z,16.74
2023-05-03T04:49:55.897Z,16.88
2023-05-03T04:52:22.504Z,17.12
2023-05-03T04:54:49.063Z,17.15
2023-05-03T04:57:15.647Z,16.95
2023-05-03T04:59:42.267Z,16.87
2023-05-03T05:02:08.900Z,16.93
2023-05-03T05:04:35.657Z,16.88
2023-05-03T05:07:02.238Z,16.83
2023-05-03T05:09:28.841Z,17.03
2023-05-03T05:11:57.002Z,17.09
2023-05-03T05:14:23.912Z,17.07
2023-05-03T05:16:50.521Z,17.15
2023-05-03T05:19:17.144Z,17.22
2023-05-03T05:21:43.800Z,17.38
2023-05-03T05:24:10.366Z,17.38
2023-05-03T05:26:37.090Z,17.55
2023-05-03T05:29:03.685Z,17.51
2023-05-03T05:31:30.373Z,17.65
2023-05-03T05:33:57.139Z,17.69
2023-05-03T05:36:23.768Z,17.71
2023-05-03T05:38:50.330Z,17.74
2023-05-03T05:41:16.988Z,17.70
2023-05-03T05:43:43.570Z,17.70
2023-05-03T05:46:10.492Z,17.87
2023-05-03T05:48:37.058Z,17.92
2023-05-03T05:51:03.859Z,18.18
2023-05-03T05:53:30.466Z,18.26
2023-05-03T05:55:57.023Z,18.42
2023-05-03T05:58:23.620Z,18.44
2023-05-03T06:00:50.364Z,18.25
2023-05-03T06:03:16.952Z,18.31
2023-05-03T06:05:43.658Z,18.22
2023-05-03T06:08:10.243Z,18.43
2023-05-03T06:10:36.827Z,18.33
2023-05-03T06:13:03.540Z,18.60
2023-05-03T06:15:31.134Z,18.65
2023-05-03T06:17:57.801Z,18.76
2023-05-03T06:20:24.849Z,18.71
2023-05-03T06:22:51.411Z,18.82
2023-05-03T06:25:18.252Z,18.93
2023-05-03T06:27:45.070Z,18.95
2023-05-03T06:30:11.667Z,19.06
2023-05-03T06:32:38.424Z,19.01
2023-05-03T06:35:05.153Z,19.29
2023-05-03T06:37:31.757Z,19.05
2023-05-03T06:39:58.340Z,19.35
2023-05-03T06:42:24.903Z,19.53
2023-05-03T06:44:51.561Z,19.82
2023-05-03T06:47:18.176Z,20.05
2023-05-03T06:49:44.750Z,20.02
2023-05-03T06:52:11.896Z,20.25
2023-05-03T06:54:38.709Z,20.50
2023-05-03T06:57:05.314Z,20.66
2023-05-03T06:59:31.900Z,20.58
2023-05-03T07:01:58.542Z,20.82
2023-05-03T07:04:25.128Z,20.75
2023-05-03T07:06:56.348Z,20.90
2023-05-03T07:09:35.327Z,21.10
2023-05-03T07:12:08.453Z,20.95
2023-05-03T07:14:35.106Z,21.00
2023-05-03T07:17:01.688Z,21.35
2023-05-03T07:19:28.277Z,21.28
2023-05-03T07:21:54.841Z,21.19
2023-05-03T07:24:21.473Z,21.06
2023-05-03T07:26:49.205Z,21.02
2023-05-03T07:29:16.021Z,21.19
2023-05-03T07:31:42.586Z,21.66
2023-05-03T07:34:09.157Z,21.77
2023-05-03T07:36:35.744Z,21.20
2023-05-03T07:39:02.358Z,21.19
2023-05-03T07:41:29.177Z,21.63
2023-05-03T07:43:55.841Z,21.76
2023-05-03T07:46:22.520Z,21.84
2023-05-03T07:48:49.315Z,21.48
2023-05-03T07:51:15.933Z,21.90
2023-05-03T07:53:42.514Z,22.16
2023-05-03T07:56:09.100Z,21.85
2023-05-03T07:58:40.528Z,22.18
2023-05-03T08:01:07.643Z,21.82
2023-05-03T08:03:34.540Z,21.61
2023-05-03T08:06:01.280Z,21.09
2023-05-03T08:08:28.097Z,21.13
2023-05-03T08:10:54.742Z,21.58
2023-05-03T08:13:21.504Z,21.95
2023-05-03T08:15:48.107Z,22.22
2023-05-03T08:18:14.751Z,22.02
2023-05-03T08:20:41.372Z,22.23
2023-05-03T08:23:07.972Z,22.26
2023-05-03T08:25:35.044Z,21.98
2023-05-03T08:28:01.682Z,22.09
2023-05-03T08:30:28.312Z,22.22
2023-05-03T08:32:55.001Z,22.37
2023-05-03T08:35:21.713Z,22.66
2023-05-03T08:37:48.371Z,22.75
2023-05-03T08:40:14.959Z,22.94
2023-05-03T08:42:41.544Z,22.81
2023-05-03T08:45:08.129Z,23.03
2023-05-03T08:47:34.750Z,23.30
2023-05-03T08:50:01.515Z,23.21
2023-05-03T08:52:28.266Z,23.05
2023-05-03T08:54:54.851Z,23.01
2023-05-03T08:57:21.470Z,22.43
2023-05-03T08:59:48.029Z,22.63
2023-05-03T09:04:41.232Z,22.42
2023-05-03T09:07:07.824Z,22.48
2023-05-03T09:09:34.385Z,22.64
2023-05-03T09:12:00.948Z,22.57
2023-05-03T09:14:27.609Z,22.28
2023-05-03T09:16:54.206Z,22.60
2023-05-03T09:19:20.847Z,23.08
2023-05-03T09:21:47.548Z,22.96
2023-05-03T09:24:14.167Z,23.02
2023-05-03T09:26:40.745Z,23.12
2023-05-03T09:29:07.342Z,23.04
2023-05-03T09:31:33.928Z,23.11
2023-05-03T09:34:00.574Z,22.62
2023-05-03T09:36:27.148Z,22.77
2023-05-03T09:38:53.871Z,23.14
2023-05-03T09:41:20.465Z,23.64
2023-05-03T09:43:47.087Z,24.12
2023-05-03T09:46:13.809Z,24.08
2023-05-03T09:48:40.548Z,24.09
2023-05-03T09:51:07.178Z,24.52
2023-05-03T09:53:33.743Z,24.54
2023-05-03T09:56:00.381Z,24.52
2023-05-03T09:58:26.972Z,24.24
2023-05-03T10:00:53.595Z,23.86
2023-05-03T10:03:20.251Z,23.63
2023-05-03T10:05:47.048Z,23.66
2023-05-03T10:08:14.038Z,23.87
2023-05-03T10:10:40.706Z,23.43
2023-05-03T10:13:07.392Z,23.71
2023-05-03T10:15:34.078Z,23.79
2023-05-03T10:18:00.797Z,23.67
2023-05-03T10:20:27.462Z,22.92
2023-05-03T10:22:54.057Z,22.82
2023-05-03T10:25:20.701Z,23.12
2023-05-03T10:27:47.304Z,23.22
2023-05-03T10:30:14.234Z,23.44
2023-05-03T10:32:40.951Z,23.78
2023-05-03T10:35:07.727Z,23.73
2023-05-03T10:37:34.737Z,23.67
2023-05-03T10:40:01.434Z,23.86
2023-05-03T10:42:28.235Z,23.87
2023-05-03T10:44:54.854Z,23.82
2023-05-03T10:47:21.688Z,23.72
2023-05-03T10:49:48.489Z,23.91
2023-05-03T10:52:15.255Z,23.92
2023-05-03T10:54:42.038Z,23.93
2023-05-03T10:57:08.649Z,23.94
2023-05-03T10:59:35.333Z,24.16
2023-05-03T11:02:02.043Z,24.12
2023-05-03T11:04:31.053Z,23.76
2023-05-03T11:06:58.553Z,23.87
2023-05-03T11:09:26.898Z,23.85
2023-05-03T11:11:53.734Z,23.99
2023-05-03T11:14:20.790Z,23.91
2023-05-03T11:16:48.276Z,23.70
2023-05-03T11:19:15.116Z,23.40
2023-05-03T11:21:41.882Z,23.44
2023-05-03T11:24:08.524Z,23.23
2023-05-03T11:26:35.424Z,23.32
2023-05-03T11:29:02.186Z,23.52
2023-05-03T11:31:28.942Z,23.44
2023-05-03T11:33:55.681Z,23.45
2023-05-03T11:36:22.680Z,23.57
2023-05-03T11:38:49.461Z,23.74
2023-05-03T11:41:16.145Z,23.55
2023-05-03T11:43:42.806Z,23.15
2023-05-03T11:48:36.518Z,21.77
2023-05-03T11:51:03.188Z,21.81
2023-05-03T11:53:29.829Z,21.16
2023-05-03T11:55:57.081Z,20.73
2023-05-03T11:58:23.894Z,20.76
2023-05-03T12:00:51.036Z,21.09
2023-05-03T12:03:18.135Z,20.86
2023-05-03T12:05:45.303Z,21.24
2023-05-03T12:08:14.319Z,21.31
2023-05-03T12:10:42.907Z,21.10
2023-05-03T12:13:10.253Z,21.20
2023-05-03T12:15:37.510Z,21.74
2023-05-03T12:18:04.844Z,21.95
2023-05-03T12:25:33.665Z,22.00
2023-05-03T12:30:33.684Z,20.95
2023-05-03T12:33:04.130Z,20.90
2023-05-03T12:35:33.488Z,21.15
2023-05-03T12:38:02.833Z,21.70
2023-05-03T12:40:34.114Z,21.98
2023-05-03T12:43:01.864Z,22.19
2023-05-03T12:45:28.697Z,22.26
2023-05-03T12:47:55.496Z,22.28
2023-05-03T12:50:24.785Z,22.25
2023-05-03T12:52:53.104Z,22.34
2023-05-03T12:55:24.536Z,22.42
2023-05-03T12:58:13.828Z,22.30
2023-05-03T13:00:46.546Z,22.43
2023-05-03T13:03:32.787Z,21.73
2023-05-03T13:06:00.861Z,21.48
2023-05-03T13:08:34.138Z,21.58
2023-05-03T13:11:02.198Z,21.85
2023-05-03T13:13:29.074Z,21.93
2023-05-03T13:15:56.596Z,21.97
2023-05-03T13:18:23.351Z,21.87
2023-05-03T13:20:50.143Z,21.91
2023-05-03T13:23:16.957Z,22.05
2023-05-03T13:25:43.537Z,21.66
2023-05-03T13:28:10.241Z,21.64
2023-05-03T13:30:37.057Z,21.58
2023-05-03T13:33:03.910Z,21.70
2023-05-03T13:35:30.692Z,21.93
2023-05-03T13:37:57.425Z,22.00
2023-05-03T13:40:24.071Z,22.04
2023-05-03T13:42:50.978Z,22.15
2023-05-03T13:45:17.872Z,22.07
2023-05-03T13:50:14.039Z,22.23
2023-05-03T13:52:40.832Z,22.27
2023-05-03T13:55:07.756Z,22.06
2023-05-03T13:57:34.490Z,22.11
2023-05-03T14:00:01.447Z,21.92
2023-05-03T14:02:28.353Z,22.08
2023-05-03T14:04:55.095Z,22.07
2023-05-03T14:07:21.908Z,21.95
2023-05-03T14:09:48.739Z,22.10
2023-05-03T14:12:15.351Z,22.10
2023-05-03T14:14:42.311Z,21.92
2023-05-03T14:17:09.155Z,21.87
2023-05-03T14:19:35.984Z,21.31
2023-05-03T14:22:02.865Z,21.31
2023-05-03T14:24:29.707Z,21.43
2023-05-03T14:26:56.633Z,21.58
2023-05-03T14:29:23.293Z,21.63
2023-05-03T14:31:50.021Z,21.66
2023-05-03T14:34:16.847Z,21.75
2023-05-03T14:36:43.754Z,21.76
2023-05-03T14:39:10.697Z,21.69
2023-05-03T14:41:37.465Z,21.67
2023-05-03T14:44:04.154Z,21.66
2023-05-03T14:46:31.041Z,21.62
2023-05-03T14:48:57.738Z,21.66
2023-05-03T14:51:24.390Z,21.72
2023-05-03T14:53:51.320Z,21.71
2023-05-03T14:56:18.065Z,21.80
2023-05-03T14:58:44.775Z,21.85
2023-05-03T15:01:11.442Z,21.91
2023-05-03T15:03:38.530Z,21.95
2023-05-03T15:06:05.146Z,21.93
2023-05-03T15:08:31.730Z,21.90
2023-05-03T15:10:58.394Z,21.76
2023-05-03T15:13:25.210Z,21.65
2023-05-03T15:15:52.187Z,21.71
2023-05-03T15:18:19.355Z,21.70
2023-05-03T15:20:46.280Z,21.69
2023-05-03T15:23:13.013Z,21.70
2023-05-03T15:25:39.658Z,21.59
2023-05-03T15:28:08.528Z,21.65
2023-05-03T15:30:35.243Z,21.59
2023-05-03T15:33:02.097Z,21.59
2023-05-03T15:35:28.816Z,21.63
2023-05-03T15:37:55.434Z,21.63
2023-05-03T15:40:24.459Z,21.60
2023-05-03T15:42:52.818Z,21.53
2023-05-03T15:45:19.458Z,21.52
2023-05-03T15:47:46.176Z,21.51
2023-05-03T15:50:12.957Z,21.56
2023-05-03T15:52:39.737Z,21.64
2023-05-03T15:55:06.330Z,21.67
2023-05-03T15:57:32.944Z,21.49
2023-05-03T15:59:59.515Z,21.35
2023-05-03T16:02:26.075Z,21.36
2023-05-03T16:04:52.725Z,21.40
2023-05-03T16:07:19.380Z,21.53
2023-05-03T16:09:45.993Z,21.39
2023-05-03T16:12:12.593Z,21.22
2023-05-03T16:14:39.170Z,20.93
2023-05-03T16:17:05.750Z,20.92
2023-05-03T16:19:32.368Z,21.09
2023-05-03T16:21:58.966Z,21.26
2023-05-03T16:24:25.615Z,21.34
2023-05-03T16:26:52.227Z,21.39
2023-05-03T16:29:18.799Z,21.56
2023-05-03T16:31:45.359Z,21.69
2023-05-03T16:34:11.989Z,21.75
2023-05-03T16:36:39.889Z,21.70
2023-05-03T16:39:06.567Z,21.71
2023-05-03T16:41:33.167Z,21.74
2023-05-03T16:43:59.718Z,21.62
2023-05-03T16:46:26.402Z,21.67
2023-05-03T16:48:53.033Z,21.69
2023-05-03T16:51:19.647Z,21.74
2023-05-03T16:53:46.235Z,21.74
2023-05-03T16:56:12.828Z,21.74
2023-05-03T16:58:39.407Z,21.62
2023-05-03T17:01:06.048Z,21.59
2023-05-03T17:03:32.822Z,21.62
2023-05-03T17:06:00.316Z,21.61
2023-05-03T17:08:28.139Z,21.64
2023-05-03T17:10:54.741Z,21.63
2023-05-03T17:13:21.496Z,21.46
2023-05-03T17:15:48.204Z,21.40
2023-05-03T17:18:14.927Z,21.42
2023-05-03T17:20:41.584Z,21.26
2023-05-03T17:23:08.158Z,21.19
2023-05-03T17:25:34.758Z,21.27
2023-05-03T17:28:01.363Z,21.42
2023-05-03T17:30:27.920Z,21.20
2023-05-03T17:32:54.582Z,21.25
2023-05-03T17:35:21.464Z,21.27
2023-05-03T17:37:48.082Z,21.20
2023-05-03T17:40:14.658Z,21.23
2023-05-03T17:42:41.686Z,21.18
2023-05-03T17:45:08.297Z,21.18
2023-05-03T17:47:35.172Z,21.13
2023-05-03T17:50:02.085Z,21.12
2023-05-03T17:52:28.845Z,20.91
2023-05-03T17:54:55.429Z,20.91
2023-05-03T17:57:21.991Z,20.84
2023-05-03T17:59:48.666Z,20.74
2023-05-03T18:02:15.296Z,20.62
2023-05-03T18:04:41.877Z,20.68
2023-05-03T18:07:08.482Z,20.60
2023-05-03T18:09:35.061Z,20.37
2023-05-03T18:12:01.715Z,20.27
2023-05-03T18:14:28.303Z,20.25
2023-05-03T18:16:55.081Z,20.27
2023-05-03T18:19:21.896Z,20.28
2023-05-03T18:21:48.853Z,20.17
2023-05-03T18:24:15.592Z,20.26
2023-05-03T18:26:42.213Z,20.31
2023-05-03T18:29:08.846Z,20.21
2023-05-03T18:31:35.475Z,20.07
2023-05-03T18:34:02.334Z,20.00
2023-05-03T18:36:28.949Z,20.06
2023-05-03T18:38:55.513Z,20.07
2023-05-03T18:41:22.657Z,19.98
2023-05-03T18:43:49.246Z,19.94
2023-05-03T18:46:16.172Z,19.97
2023-05-03T18:48:42.804Z,20.01
2023-05-03T18:51:09.376Z,19.98
2023-05-03T18:53:35.968Z,19.78
2023-05-03T18:56:02.542Z,19.83
2023-05-03T18:58:29.157Z,19.84
2023-05-03T19:00:55.768Z,19.80
2023-05-03T19:03:22.373Z,19.80
2023-05-03T19:05:49.012Z,19.70
2023-05-03T19:08:15.596Z,19.69
2023-05-03T19:10:42.267Z,19.72
2023-05-03T19:13:08.951Z,19.55
2023-05-03T19:15:35.539Z,19.56
2023-05-03T19:18:02.201Z,19.57
2023-05-03T19:20:28.945Z,19.61
2023-05-03T19:22:55.537Z,19.52
2023-05-03T19:25:22.119Z,19.50
2023-05-03T19:27:48.736Z,19.53
2023-05-03T19:30:16.675Z,19.36
2023-05-03T19:32:43.364Z,19.19
2023-05-03T19:35:10.010Z,19.16
2023-05-03T19:37:36.616Z,19.09
2023-05-03T19:40:03.446Z,19.08
2023-05-03T19:42:30.203Z,19.17
2023-05-03T19:44:56.789Z,19.23
2023-05-03T19:47:23.587Z,19.34
2023-05-03T19:49:50.221Z,19.34
2023-05-03T19:52:16.820Z,19.31
2023-05-03T19:54:43.382Z,19.19
2023-05-03T19:57:09.938Z,19.10
2023-05-03T19:59:36.517Z,19.10
2023-05-03T20:02:03.368Z,19.18
2023-05-03T20:04:30.137Z,18.95
2023-05-03T20:06:56.736Z,18.76
2023-05-03T20:09:23.814Z,18.83
2023-05-03T20:11:50.437Z,18.66
2023-05-03T20:14:16.999Z,18.85
2023-05-03T20:16:43.611Z,18.90
2023-05-03T20:19:10.254Z,19.06
2023-05-03T20:21:37.894Z,19.05
2023-05-03T20:24:04.563Z,18.94
2023-05-03T20:26:31.154Z,18.93
2023-05-03T20:28:57.778Z,18.94
2023-05-03T20:31:24.435Z,18.83
2023-05-03T20:33:51.084Z,18.90
2023-05-03T20:36:17.872Z,18.95
2023-05-03T20:38:44.422Z,18.90
2023-05-03T20:41:11.052Z,18.86
2023-05-03T20:43:37.650Z,18.86
2023-05-03T20:46:04.289Z,18.87
2023-05-03T20:48:30.961Z,18.88
2023-05-03T20:50:57.604Z,18.74
2023-05-03T20:53:24.208Z,18.70
2023-05-03T20:55:50.893Z,18.71
2023-05-03T20:58:17.491Z,18.67
2023-05-03T21:00:44.082Z,18.58
2023-05-03T21:03:10.714Z,18.40
2023-05-03T21:05:37.390Z,18.31
2023-05-03T21:08:03.983Z,18.31
2023-05-03T21:10:30.615Z,18.26
2023-05-03T21:12:57.240Z,18.32
2023-05-03T21:15:23.932Z,18.32
2023-05-03T21:17:50.550Z,18.38
2023-05-03T21:20:17.151Z,18.50
2023-05-03T21:22:43.831Z,18.36
2023-05-03T21:25:10.440Z,18.37
2023-05-03T21:27:37.061Z,18.32
2023-05-03T21:30:03.916Z,18.29
2023-05-03T21:32:30.721Z,18.26
2023-05-03T21:34:57.318Z,18.39
2023-05-03T21:37:24.004Z,18.37
2023-05-03T21:40:01.023Z,18.24
2023-05-03T21:42:28.828Z,18.30
2023-05-03T21:44:55.411Z,18.29
2023-05-03T21:47:22.918Z,18.19
2023-05-03T21:49:49.482Z,18.17
2023-05-03T21:52:16.074Z,18.02
2023-05-03T21:54:42.646Z,18.02
2023-05-03T21:57:09.222Z,17.96
2023-05-03T21:59:35.831Z,17.86
2023-05-03T22:02:02.690Z,18.02
2023-05-03T22:04:29.414Z,18.14
2023-05-03T22:06:55.996Z,18.04
2023-05-03T22:09:22.615Z,18.01
2023-05-03T22:11:49.275Z,17.85
2023-05-03T22:14:17.223Z,17.90
2023-05-03T22:16:43.826Z,17.90
2023-05-03T22:19:10.741Z,17.91
2023-05-03T22:21:37.285Z,17.87
2023-05-03T22:24:06.408Z,17.86
2023-05-03T22:26:33.057Z,17.86
2023-05-03T22:28:59.653Z,17.84
2023-05-03T22:31:26.268Z,17.90
2023-05-03T22:33:53.089Z,17.90
2023-05-03T22:36:19.724Z,17.88
2023-05-03T22:38:46.356Z,17.78
2023-05-03T22:41:12.993Z,17.75
2023-05-03T22:43:39.573Z,17.69
2023-05-03T22:46:06.176Z,17.82
2023-05-03T22:48:32.800Z,17.82
2023-05-03T22:50:59.364Z,17.70
2023-05-03T22:53:25.984Z,17.64
2023-05-03T22:55:52.546Z,17.67
2023-05-03T22:58:19.213Z,17.50
2023-05-03T23:00:45.853Z,17.43
2023-05-03T23:03:12.577Z,17.62
2023-05-03T23:05:39.352Z,17.76
2023-05-03T23:08:05.940Z,17.69
2023-05-03T23:10:32.517Z,17.71
2023-05-03T23:12:59.199Z,17.69
2023-05-03T23:15:25.847Z,17.70
2023-05-03T23:17:52.702Z,17.71
2023-05-03T23:20:19.369Z,17.82
2023-05-03T23:22:46.122Z,17.78
2023-05-03T23:25:12.685Z,17.66
2023-05-03T23:27:39.299Z,17.42
2023-05-03T23:30:06.386Z,17.38
2023-05-03T23:32:33.739Z,17.46
2023-05-03T23:35:00.838Z,17.53
2023-05-03T23:37:27.430Z,17.35
2023-05-03T23:39:54.035Z,17.30
2023-05-03T23:42:20.608Z,17.27
2023-05-03T23:44:55.223Z,17.10
2023-05-03T23:47:22.516Z,17.07
2023-05-03T23:49:49.094Z,17.24
2023-05-03T23:52:15.678Z,17.11
2023-05-03T23:54:43.472Z,17.05
2023-05-03T23:57:10.122Z,17.14
2023-05-03T23:59:36.680Z,17.23
